createdAt,value
2017-05-31T00:02:12.268Z,19.71
2017-05-31T00:04:39.800Z,19.78
2017-05-31T00:07:07.318Z,19.76
2017-05-31T00:09:34.863Z,19.81
2017-05-31T00:12:02.383Z,19.68
2017-05-31T00:14:29.939Z,19.54
2017-05-31T00:16:57.481Z,19.45
2017-05-31T00:19:25.042Z,19.49
2017-05-31T00:21:52.601Z,19.39
2017-05-31T00:24:20.137Z,19.36
2017-05-31T00:26:47.684Z,19.27
2017-05-31T00:29:15.220Z,19.27
2017-05-31T00:31:42.802Z,19.25
2017-05-31T00:34:10.329Z,19.43
2017-05-31T00:36:37.916Z,19.41
2017-05-31T00:39:05.526Z,19.27
2017-05-31T00:41:33.122Z,19.10
2017-05-31T00:44:00.652Z,19.09
2017-05-31T00:46:28.255Z,19.25
2017-05-31T00:48:55.862Z,19.05
2017-05-31T00:51:23.508Z,19.03
2017-05-31T00:53:51.032Z,19.14
2017-05-31T00:56:18.567Z,19.05
2017-05-31T00:58:46.130Z,19.14
2017-05-31T01:01:13.679Z,19.23
2017-05-31T01:03:41.214Z,19.32
2017-05-31T01:06:08.771Z,19.30
2017-05-31T01:08:36.396Z,19.08
2017-05-31T01:11:03.972Z,19.08
2017-05-31T01:13:31.571Z,19.04
2017-05-31T01:15:59.047Z,19.03
2017-05-31T01:18:26.592Z,18.88
2017-05-31T01:20:54.108Z,18.76
2017-05-31T01:23:21.689Z,18.70
2017-05-31T01:25:49.207Z,18.71
2017-05-31T01:28:16.731Z,18.88
2017-05-31T01:30:44.291Z,18.72
2017-05-31T01:33:11.807Z,18.74
2017-05-31T01:35:39.704Z,18.82
2017-05-31T01:38:07.219Z,18.79
2017-05-31T01:40:34.757Z,18.72
2017-05-31T01:43:02.308Z,18.86
2017-05-31T01:45:29.823Z,18.84
2017-05-31T01:47:57.372Z,19.02
2017-05-31T01:50:24.895Z,18.86
2017-05-31T01:52:52.405Z,19.08
2017-05-31T01:55:19.938Z,19.01
2017-05-31T01:57:47.460Z,19.13
2017-05-31T02:00:15.000Z,18.75
2017-05-31T02:02:42.637Z,18.66
2017-05-31T02:05:10.204Z,18.72
2017-05-31T02:07:37.804Z,18.29
2017-05-31T02:10:05.392Z,18.33
2017-05-31T02:12:32.988Z,18.20
2017-05-31T02:15:00.519Z,18.02
2017-05-31T02:17:28.088Z,18.21
2017-05-31T02:19:55.600Z,18.28
2017-05-31T02:22:23.173Z,18.22
2017-05-31T02:24:50.691Z,18.25
2017-05-31T02:27:18.359Z,18.16
2017-05-31T02:29:45.912Z,18.08
2017-05-31T02:32:13.479Z,18.18
2017-05-31T02:34:41.040Z,17.86
2017-05-31T02:37:08.636Z,17.64
2017-05-31T02:39:36.155Z,17.71
2017-05-31T02:42:03.707Z,17.48
2017-05-31T02:44:31.242Z,17.36
2017-05-31T02:46:58.849Z,17.44
2017-05-31T02:49:26.472Z,17.27
2017-05-31T02:51:54.135Z,17.41
2017-05-31T02:54:21.658Z,17.58
2017-05-31T02:56:49.243Z,17.51
2017-05-31T02:59:16.866Z,17.45
2017-05-31T03:01:44.402Z,17.31
2017-05-31T03:04:12.022Z,17.24
2017-05-31T03:06:39.591Z,17.29
2017-05-31T03:09:07.248Z,17.22
2017-05-31T03:11:34.811Z,17.21
2017-05-31T03:14:02.416Z,17.44
2017-05-31T03:16:29.932Z,17.28
2017-05-31T03:18:57.459Z,17.31
2017-05-31T03:21:25.036Z,17.24
2017-05-31T03:23:52.619Z,17.33
2017-05-31T03:26:20.268Z,17.37
2017-05-31T03:28:47.791Z,17.37
2017-05-31T03:31:15.323Z,17.42
2017-05-31T03:33:42.927Z,17.20
2017-05-31T03:36:10.454Z,17.10
2017-05-31T03:38:38.055Z,17.03
2017-05-31T03:41:05.571Z,16.90
2017-05-31T03:43:33.099Z,16.99
2017-05-31T03:46:00.632Z,16.99
2017-05-31T03:48:28.141Z,17.01
2017-05-31T03:50:55.693Z,16.91
2017-05-31T03:53:23.220Z,16.79
2017-05-31T03:55:51.099Z,16.88
2017-05-31T03:58:18.723Z,16.79
2017-05-31T04:00:46.248Z,16.57
2017-05-31T04:03:13.846Z,16.77
2017-05-31T04:05:41.436Z,16.93
2017-05-31T04:08:08.999Z,17.00
2017-05-31T04:10:36.526Z,16.94
2017-05-31T04:13:04.040Z,16.76
2017-05-31T04:15:31.624Z,16.43
2017-05-31T04:17:59.160Z,16.80
2017-05-31T04:20:26.800Z,16.80
2017-05-31T04:22:54.331Z,16.72
2017-05-31T04:25:21.848Z,16.70
2017-05-31T04:27:49.424Z,16.76
2017-05-31T04:30:16.959Z,16.80
2017-05-31T04:32:44.861Z,16.74
2017-05-31T04:35:12.395Z,16.88
2017-05-31T04:37:39.963Z,16.85
2017-05-31T04:40:07.515Z,16.89
2017-05-31T04:42:35.076Z,16.71
2017-05-31T04:45:02.692Z,16.62
2017-05-31T04:47:30.228Z,16.77
2017-05-31T04:49:57.775Z,16.76
2017-05-31T04:52:25.387Z,16.55
2017-05-31T04:54:52.936Z,16.74
2017-05-31T04:57:20.532Z,16.72
2017-05-31T04:59:48.067Z,16.78
2017-05-31T05:02:15.636Z,16.77
2017-05-31T05:04:43.167Z,16.70
2017-05-31T05:07:10.708Z,17.05
2017-05-31T05:09:38.368Z,16.92
2017-05-31T05:12:05.927Z,16.87
2017-05-31T05:14:33.517Z,16.81
2017-05-31T05:17:01.035Z,17.04
2017-05-31T05:19:28.614Z,17.05
2017-05-31T05:21:56.141Z,17.00
2017-05-31T05:24:23.934Z,16.93
2017-05-31T05:26:51.500Z,16.91
2017-05-31T05:29:19.032Z,17.16
2017-05-31T05:31:46.587Z,17.35
2017-05-31T05:34:14.132Z,17.27
2017-05-31T05:36:41.707Z,17.21
2017-05-31T05:39:09.268Z,17.21
2017-05-31T05:41:36.880Z,17.25
2017-05-31T05:44:04.391Z,17.04
2017-05-31T05:46:31.936Z,17.37
2017-05-31T05:48:59.516Z,17.36
2017-05-31T05:51:27.063Z,17.37
2017-05-31T05:53:54.635Z,17.09
2017-05-31T05:56:22.164Z,17.38
2017-05-31T05:58:49.792Z,17.33
2017-05-31T06:01:17.317Z,17.62
2017-05-31T06:03:44.856Z,17.80
2017-05-31T06:06:12.419Z,17.62
2017-05-31T06:08:39.939Z,17.70
2017-05-31T06:11:07.619Z,17.84
2017-05-31T06:13:37.213Z,17.98
2017-05-31T06:16:04.967Z,18.09
2017-05-31T06:18:32.524Z,17.83
2017-05-31T06:21:00.051Z,17.64
2017-05-31T06:23:27.678Z,17.60
2017-05-31T06:25:55.215Z,17.75
2017-05-31T06:28:22.783Z,17.69
2017-05-31T06:30:50.319Z,18.01
2017-05-31T06:33:17.954Z,17.77
2017-05-31T06:35:45.587Z,17.93
2017-05-31T06:38:13.140Z,17.91
2017-05-31T06:40:40.738Z,17.86
2017-05-31T06:43:08.316Z,17.69
2017-05-31T06:45:36.180Z,17.75
2017-05-31T06:48:03.711Z,17.74
2017-05-31T06:50:31.251Z,17.86
2017-05-31T06:52:58.848Z,17.89
2017-05-31T06:55:26.379Z,18.04
2017-05-31T06:57:53.968Z,18.21
2017-05-31T07:00:21.559Z,17.98
2017-05-31T07:02:49.127Z,17.87
2017-05-31T07:05:16.640Z,18.18
2017-05-31T07:07:44.160Z,18.18
2017-05-31T07:10:11.781Z,18.33
2017-05-31T07:12:39.377Z,18.17
2017-05-31T07:15:06.971Z,18.40
2017-05-31T07:17:34.549Z,18.65
2017-05-31T07:20:02.084Z,18.32
2017-05-31T07:22:29.727Z,18.60
2017-05-31T07:24:57.289Z,18.68
2017-05-31T07:27:24.907Z,18.40
2017-05-31T07:29:52.423Z,18.40
2017-05-31T07:32:19.956Z,18.71
2017-05-31T07:34:47.528Z,18.50
2017-05-31T07:37:15.047Z,18.64
2017-05-31T07:39:42.637Z,18.77
2017-05-31T07:42:10.173Z,18.70
2017-05-31T07:44:37.711Z,18.52
2017-05-31T07:47:05.240Z,18.48
2017-05-31T07:49:32.797Z,18.50
2017-05-31T07:52:00.335Z,18.58
2017-05-31T07:54:27.924Z,18.74
2017-05-31T07:56:55.439Z,18.68
2017-05-31T07:59:23.028Z,18.92
2017-05-31T08:01:50.568Z,18.90
2017-05-31T08:04:18.101Z,19.34
2017-05-31T08:06:45.659Z,19.42
2017-05-31T08:09:13.176Z,19.42
2017-05-31T08:11:40.719Z,19.47
2017-05-31T08:14:08.261Z,19.40
2017-05-31T08:16:35.836Z,19.31
2017-05-31T08:19:03.368Z,19.10
2017-05-31T08:21:30.922Z,18.86
2017-05-31T08:23:58.491Z,19.08
2017-05-31T08:26:26.020Z,19.56
2017-05-31T08:28:53.577Z,19.81
2017-05-31T08:31:21.091Z,19.85
2017-05-31T08:33:48.651Z,19.77
2017-05-31T08:36:16.191Z,19.47
2017-05-31T08:38:43.781Z,19.61
2017-05-31T08:41:11.308Z,19.54
2017-05-31T08:43:38.831Z,19.86
2017-05-31T08:46:06.425Z,19.57
2017-05-31T08:48:33.939Z,19.44
2017-05-31T08:51:01.524Z,19.63
2017-05-31T08:53:29.048Z,19.66
2017-05-31T08:55:56.608Z,19.82
2017-05-31T08:58:24.136Z,19.70
2017-05-31T09:00:51.728Z,19.49
2017-05-31T09:03:19.243Z,19.65
2017-05-31T09:05:46.774Z,19.76
2017-05-31T09:08:14.772Z,19.88
2017-05-31T09:10:42.292Z,19.84
2017-05-31T09:13:09.938Z,19.84
2017-05-31T09:15:37.468Z,19.82
2017-05-31T09:18:05.039Z,20.01
2017-05-31T09:20:32.601Z,19.69
2017-05-31T09:23:00.147Z,19.98
2017-05-31T09:25:27.683Z,20.30
2017-05-31T09:27:55.256Z,19.79
2017-05-31T09:30:22.774Z,20.07
2017-05-31T09:32:50.313Z,20.25
2017-05-31T09:35:17.907Z,20.42
2017-05-31T09:37:45.427Z,20.51
2017-05-31T09:40:12.999Z,20.38
2017-05-31T09:42:40.513Z,20.65
2017-05-31T09:45:08.037Z,20.67
2017-05-31T09:47:35.612Z,20.96
2017-05-31T09:50:03.120Z,21.37
2017-05-31T09:52:30.645Z,21.55
2017-05-31T09:54:58.192Z,21.61
2017-05-31T09:57:25.719Z,21.25
2017-05-31T09:59:53.267Z,21.06
2017-05-31T10:02:20.859Z,21.29
2017-05-31T10:04:48.439Z,21.29
2017-05-31T10:07:16.075Z,21.45
2017-05-31T10:09:43.649Z,21.59
2017-05-31T10:12:11.178Z,21.87
2017-05-31T10:14:38.720Z,22.12
2017-05-31T10:17:06.279Z,21.98
2017-05-31T10:19:33.831Z,21.94
2017-05-31T10:22:01.384Z,22.01
2017-05-31T10:24:28.903Z,22.18
2017-05-31T10:26:56.482Z,22.68
2017-05-31T10:29:24.116Z,23.06
2017-05-31T10:31:51.652Z,22.79
2017-05-31T10:34:19.259Z,22.38
2017-05-31T10:36:46.872Z,21.99
2017-05-31T10:39:14.487Z,22.32
2017-05-31T10:41:42.029Z,22.37
2017-05-31T10:44:09.619Z,22.46
2017-05-31T10:46:37.240Z,22.04
2017-05-31T10:49:04.764Z,21.74
2017-05-31T10:51:32.342Z,21.98
2017-05-31T10:53:59.888Z,21.85
2017-05-31T10:56:27.419Z,21.84
2017-05-31T10:58:55.039Z,21.88
2017-05-31T11:01:22.571Z,21.74
2017-05-31T11:03:50.167Z,21.87
2017-05-31T11:06:17.694Z,21.95
2017-05-31T11:08:45.273Z,22.12
2017-05-31T11:11:12.830Z,22.02
2017-05-31T11:13:40.366Z,22.03
2017-05-31T11:16:07.919Z,22.12
2017-05-31T11:18:35.516Z,22.10
2017-05-31T11:21:03.085Z,22.24
2017-05-31T11:23:30.615Z,22.30
2017-05-31T11:25:58.140Z,22.29
2017-05-31T11:28:25.704Z,22.31
2017-05-31T11:30:53.222Z,22.62
2017-05-31T11:33:20.803Z,23.03
2017-05-31T11:35:48.328Z,22.77
2017-05-31T11:38:15.874Z,22.58
2017-05-31T11:40:43.431Z,22.24
2017-05-31T11:43:10.976Z,22.34
2017-05-31T11:45:38.524Z,22.35
2017-05-31T11:48:06.040Z,22.34
2017-05-31T11:50:33.630Z,22.43
2017-05-31T11:53:01.156Z,22.40
2017-05-31T11:55:28.691Z,22.47
2017-05-31T11:57:56.260Z,22.40
2017-05-31T12:00:23.872Z,22.99
2017-05-31T12:02:51.416Z,23.68
2017-05-31T12:05:18.930Z,23.85
2017-05-31T12:07:46.631Z,24.31
2017-05-31T12:10:14.268Z,24.26
2017-05-31T12:12:41.825Z,24.24
2017-05-31T12:15:09.411Z,23.69
2017-05-31T12:17:36.943Z,23.52
2017-05-31T12:20:04.564Z,23.39
2017-05-31T12:22:32.088Z,23.42
2017-05-31T12:24:59.763Z,23.92
2017-05-31T12:27:27.289Z,24.20
2017-05-31T12:29:54.916Z,24.31
2017-05-31T12:32:22.452Z,24.13
2017-05-31T12:34:49.999Z,24.37
2017-05-31T12:37:17.540Z,24.23
2017-05-31T12:39:45.119Z,23.79
2017-05-31T12:42:12.676Z,23.74
2017-05-31T12:44:40.203Z,23.96
2017-05-31T12:47:07.779Z,24.03
2017-05-31T12:49:35.299Z,23.93
2017-05-31T12:52:02.883Z,24.01
2017-05-31T12:54:30.440Z,23.82
2017-05-31T12:56:57.992Z,23.80
2017-05-31T12:59:25.545Z,23.61
2017-05-31T13:01:53.073Z,23.65
2017-05-31T13:04:20.767Z,23.55
2017-05-31T13:06:48.287Z,23.42
2017-05-31T13:09:15.807Z,23.61
2017-05-31T13:11:43.380Z,23.73
2017-05-31T13:14:10.904Z,23.61
2017-05-31T13:16:38.452Z,23.53
2017-05-31T13:19:05.982Z,23.41
2017-05-31T13:21:33.544Z,23.80
2017-05-31T13:24:01.060Z,24.56
2017-05-31T13:26:28.656Z,24.85
2017-05-31T13:28:56.195Z,24.99
2017-05-31T13:31:23.832Z,25.07
2017-05-31T13:33:51.463Z,25.66
2017-05-31T13:36:18.995Z,25.91
2017-05-31T13:38:46.569Z,25.98
2017-05-31T13:41:14.107Z,26.05
2017-05-31T13:43:41.620Z,25.78
2017-05-31T13:46:09.186Z,25.80
2017-05-31T13:48:36.729Z,25.33
2017-05-31T13:51:04.275Z,25.46
2017-05-31T13:53:31.844Z,25.21
2017-05-31T13:55:59.407Z,25.58
2017-05-31T13:58:27.006Z,25.32
2017-05-31T14:00:54.640Z,25.27
2017-05-31T14:03:22.169Z,25.44
2017-05-31T14:05:49.799Z,25.11
2017-05-31T14:08:17.338Z,24.90
2017-05-31T14:10:44.863Z,24.39
2017-05-31T14:13:12.412Z,24.26
2017-05-31T14:15:39.933Z,24.61
2017-05-31T14:18:07.486Z,25.29
2017-05-31T14:20:35.051Z,25.59
2017-05-31T14:23:02.616Z,25.14
2017-05-31T14:25:30.164Z,25.80
2017-05-31T14:27:57.697Z,26.71
2017-05-31T14:30:25.254Z,25.90
2017-05-31T14:32:52.771Z,26.50
2017-05-31T14:35:20.346Z,26.79
2017-05-31T14:37:47.911Z,26.86
2017-05-31T14:40:15.447Z,26.83
2017-05-31T14:42:43.002Z,26.81
2017-05-31T14:45:10.532Z,27.41
2017-05-31T14:47:38.113Z,27.25
2017-05-31T14:50:05.660Z,26.53
2017-05-31T14:52:33.181Z,27.52
2017-05-31T14:55:00.744Z,26.73
2017-05-31T14:57:28.276Z,26.47
2017-05-31T14:59:55.858Z,26.35
2017-05-31T15:02:23.388Z,26.33
2017-05-31T15:04:50.913Z,26.01
2017-05-31T15:07:18.455Z,25.83
2017-05-31T15:09:45.993Z,25.45
2017-05-31T15:12:13.545Z,25.57
2017-05-31T15:14:41.074Z,26.16
2017-05-31T15:17:08.647Z,25.70
2017-05-31T15:19:36.176Z,25.57
2017-05-31T15:22:03.691Z,25.56
2017-05-31T15:24:31.262Z,25.40
2017-05-31T15:26:58.784Z,25.56
2017-05-31T15:29:26.328Z,25.39
2017-05-31T15:31:53.846Z,25.31
2017-05-31T15:34:21.416Z,25.36
2017-05-31T15:36:48.950Z,26.16
2017-05-31T15:39:16.511Z,26.63
2017-05-31T15:41:44.088Z,27.23
2017-05-31T15:44:11.613Z,27.59
2017-05-31T15:46:39.128Z,28.43
2017-05-31T15:49:06.679Z,27.25
2017-05-31T15:51:34.204Z,27.31
2017-05-31T15:54:01.791Z,27.64
2017-05-31T15:56:29.322Z,27.07
2017-05-31T15:58:56.857Z,27.33
2017-05-31T16:01:24.411Z,27.37
2017-05-31T16:03:51.933Z,27.86
2017-05-31T16:06:19.492Z,28.42
2017-05-31T16:08:47.032Z,28.48
2017-05-31T16:11:14.653Z,28.58
2017-05-31T16:13:42.243Z,28.00
2017-05-31T16:16:09.756Z,26.72
2017-05-31T16:18:37.373Z,26.34
2017-05-31T16:21:04.961Z,26.13
2017-05-31T16:23:32.558Z,26.49
2017-05-31T16:26:00.068Z,26.42
2017-05-31T16:28:27.682Z,26.66
2017-05-31T16:30:55.211Z,26.77
2017-05-31T16:33:22.855Z,27.23
2017-05-31T16:35:50.499Z,27.40
2017-05-31T16:38:18.071Z,27.20
2017-05-31T16:40:45.726Z,27.13
2017-05-31T16:43:13.243Z,27.76
2017-05-31T16:45:40.820Z,27.77
2017-05-31T16:48:08.381Z,27.49
2017-05-31T16:50:35.935Z,27.68
2017-05-31T16:53:03.498Z,27.33
2017-05-31T16:55:31.023Z,27.17
2017-05-31T16:57:58.579Z,27.18
2017-05-31T17:00:26.130Z,26.54
2017-05-31T17:02:53.663Z,26.14
2017-05-31T17:05:21.215Z,26.23
2017-05-31T17:07:48.739Z,26.35
2017-05-31T17:10:16.281Z,26.13
2017-05-31T17:12:43.836Z,26.00
2017-05-31T17:15:11.379Z,26.00
2017-05-31T17:17:39.004Z,26.22
2017-05-31T17:20:06.539Z,26.51
2017-05-31T17:22:34.083Z,26.57
2017-05-31T17:25:01.650Z,26.19
2017-05-31T17:27:29.196Z,26.32
2017-05-31T17:29:56.771Z,26.28
2017-05-31T17:32:24.317Z,26.29
2017-05-31T17:34:52.714Z,26.51
2017-05-31T17:37:20.370Z,26.53
2017-05-31T17:39:47.926Z,26.53
2017-05-31T17:42:15.518Z,26.34
2017-05-31T17:44:43.061Z,26.37
2017-05-31T17:47:10.579Z,26.60
2017-05-31T17:49:38.148Z,26.73
2017-05-31T17:52:05.670Z,26.42
2017-05-31T17:54:33.227Z,26.00
2017-05-31T17:57:00.770Z,25.71
2017-05-31T17:59:28.394Z,25.64
2017-05-31T18:01:56.008Z,25.72
2017-05-31T18:04:23.587Z,25.73
2017-05-31T18:06:51.148Z,25.49
2017-05-31T18:09:18.694Z,25.72
2017-05-31T18:11:46.275Z,25.44
2017-05-31T18:14:13.822Z,25.25
2017-05-31T18:16:41.394Z,25.50
2017-05-31T18:19:08.936Z,25.44
2017-05-31T18:21:36.467Z,25.60
2017-05-31T18:24:04.019Z,25.58
2017-05-31T18:26:31.543Z,25.42
2017-05-31T18:28:59.314Z,25.44
2017-05-31T18:31:26.832Z,25.54
2017-05-31T18:33:54.365Z,25.49
2017-05-31T18:36:21.932Z,25.60
2017-05-31T18:38:49.460Z,25.49
2017-05-31T18:41:17.057Z,25.27
2017-05-31T18:43:44.647Z,25.06
2017-05-31T18:46:12.252Z,25.14
2017-05-31T18:48:39.812Z,25.10
2017-05-31T18:51:07.335Z,25.16
2017-05-31T18:53:34.932Z,24.96
2017-05-31T18:56:02.459Z,24.97
2017-05-31T18:58:30.018Z,25.04
2017-05-31T19:00:57.557Z,24.90
2017-05-31T19:03:25.116Z,24.88
2017-05-31T19:05:52.699Z,24.66
2017-05-31T19:08:20.291Z,24.75
2017-05-31T19:10:47.829Z,24.63
2017-05-31T19:13:15.352Z,24.47
2017-05-31T19:15:42.915Z,24.35
2017-05-31T19:18:10.631Z,24.48
2017-05-31T19:20:38.183Z,24.39
2017-05-31T19:23:05.719Z,24.45
2017-05-31T19:25:33.329Z,24.57
2017-05-31T19:28:00.866Z,24.41
2017-05-31T19:30:28.413Z,24.16
2017-05-31T19:32:55.984Z,24.13
2017-05-31T19:35:23.507Z,24.11
2017-05-31T19:37:51.105Z,24.00
2017-05-31T19:40:18.644Z,24.04
2017-05-31T19:42:46.202Z,23.96
2017-05-31T19:45:13.751Z,23.81
2017-05-31T19:47:41.336Z,23.86
2017-05-31T19:50:08.931Z,23.75
2017-05-31T19:52:36.535Z,23.78
2017-05-31T19:55:04.083Z,23.71
2017-05-31T19:57:31.755Z,23.68
2017-05-31T19:59:59.312Z,23.57
2017-05-31T20:02:26.864Z,23.50
2017-05-31T20:04:54.795Z,23.65
2017-05-31T20:07:22.345Z,23.61
2017-05-31T20:09:49.872Z,23.59
2017-05-31T20:12:17.427Z,23.55
2017-05-31T20:14:44.965Z,23.39
2017-05-31T20:17:13.138Z,23.34
2017-05-31T20:19:40.791Z,23.23
2017-05-31T20:22:08.421Z,23.25
2017-05-31T20:24:35.979Z,23.26
2017-05-31T20:27:03.511Z,23.28
2017-05-31T20:29:31.131Z,23.21
2017-05-31T20:31:58.770Z,23.26
2017-05-31T20:34:26.375Z,23.18
2017-05-31T20:36:53.896Z,23.07
2017-05-31T20:39:21.482Z,22.96
2017-05-31T20:41:48.998Z,23.11
2017-05-31T20:44:16.511Z,22.95
2017-05-31T20:46:44.070Z,22.77
2017-05-31T20:49:11.604Z,22.83
2017-05-31T20:51:39.156Z,22.87
2017-05-31T20:54:06.688Z,22.67
2017-05-31T20:56:34.277Z,22.58
2017-05-31T20:59:01.796Z,22.53
2017-05-31T21:01:29.327Z,22.54
2017-05-31T21:03:56.924Z,22.55
2017-05-31T21:06:24.464Z,22.57
2017-05-31T21:08:51.991Z,22.56
2017-05-31T21:11:19.599Z,22.60
2017-05-31T21:13:47.162Z,22.43
2017-05-31T21:16:14.679Z,22.33
2017-05-31T21:18:42.238Z,22.20
2017-05-31T21:21:09.777Z,22.22
2017-05-31T21:23:37.377Z,22.23
2017-05-31T21:26:04.913Z,22.11
2017-05-31T21:28:32.479Z,22.00
2017-05-31T21:31:00.570Z,22.02
2017-05-31T21:33:28.253Z,21.98
2017-05-31T21:35:56.947Z,21.97
2017-05-31T21:38:25.041Z,21.90
2017-05-31T21:40:52.632Z,21.70
2017-05-31T21:43:23.820Z,21.62
2017-05-31T21:45:56.303Z,21.52
2017-05-31T21:48:27.108Z,21.52
2017-05-31T21:50:54.683Z,21.45
2017-05-31T21:53:22.211Z,21.31
2017-05-31T21:55:49.739Z,21.34
2017-05-31T21:58:19.925Z,21.40
2017-05-31T22:00:47.655Z,21.43
2017-05-31T22:03:15.207Z,21.36
2017-05-31T22:05:42.806Z,21.31
2017-05-31T22:08:10.458Z,21.28
2017-05-31T22:10:37.987Z,21.20
2017-05-31T22:13:05.763Z,21.06
2017-05-31T22:15:33.475Z,20.90
2017-05-31T22:18:01.023Z,20.97
2017-05-31T22:20:28.568Z,21.08
2017-05-31T22:22:56.095Z,21.00
2017-05-31T22:25:23.771Z,20.91
2017-05-31T22:27:51.292Z,20.73
2017-05-31T22:30:21.199Z,20.80
2017-05-31T22:32:49.194Z,20.60
2017-05-31T22:35:17.716Z,20.65
2017-05-31T22:37:46.395Z,20.53
2017-05-31T22:40:13.921Z,20.51
2017-05-31T22:42:41.465Z,20.59
2017-05-31T22:45:09.282Z,20.60
2017-05-31T22:47:36.853Z,20.57
2017-05-31T22:50:04.387Z,20.50
2017-05-31T22:52:35.527Z,20.51
2017-05-31T22:55:03.050Z,20.41
2017-05-31T22:57:30.591Z,20.45
2017-05-31T22:59:58.120Z,20.26
2017-05-31T23:02:25.719Z,20.34
2017-05-31T23:04:53.244Z,20.39
2017-05-31T23:07:20.787Z,20.30
2017-05-31T23:09:48.397Z,20.22
2017-05-31T23:12:15.924Z,20.22
2017-05-31T23:14:43.492Z,20.09
2017-05-31T23:17:11.012Z,20.05
2017-05-31T23:19:38.529Z,19.94
2017-05-31T23:22:06.100Z,19.90
2017-05-31T23:24:33.614Z,19.80
2017-05-31T23:27:01.180Z,19.69
2017-05-31T23:29:28.691Z,19.63
2017-05-31T23:31:56.215Z,19.61
2017-05-31T23:34:23.765Z,19.58
2017-05-31T23:36:51.292Z,19.70
2017-05-31T23:39:18.851Z,19.52
2017-05-31T23:41:46.373Z,19.52
2017-05-31T23:44:13.896Z,19.56
2017-05-31T23:46:41.444Z,19.50
2017-05-31T23:49:08.959Z,19.41
2017-05-31T23:51:36.644Z,19.38
2017-05-31T23:54:04.219Z,19.44
2017-05-31T23:56:31.952Z,19.29
2017-05-31T23:58:59.511Z,19.34
